sensor_id;sensor_type;location;lat;lon;timestamp;pressure;altitude;pressure_sealevel;temperature;humidity
6938;BME280;40040;42.706;23.372;2023-05-25T00:01:34;148251.41;;;16.55;100.00
6938;BME280;40040;42.706;23.372;2023-05-25T00:04:02;148232.88;;;16.47;100.00
6938;BME280;40040;42.706;23.372;2023-05-25T00:06:29;148214.22;;;16.40;100.00
6938;BME280;40040;42.706;23.372;2023-05-25T00:08:56;148198.13;;;16.33;100.00
6938;BME280;40040;42.706;23.372;2023-05-25T00:11:23;148185.72;;;16.28;100.00
6938;BME280;40040;42.706;23.372;2023-05-25T00:13:52;148177.06;;;16.25;100.00
6938;BME280;40040;42.706;23.372;2023-05-25T00:16:19;148179.50;;;16.26;100.00
6938;BME280;40040;42.706;23.372;2023-05-25T00:18:46;148144.81;;;16.12;100.00
6938;BME280;40040;42.706;23.372;2023-05-25T00:21:13;148122.50;;;16.03;100.00
6938;BME280;40040;42.706;23.372;2023-05-25T00:23:40;148117.53;;;16.01;100.00
6938;BME280;40040;42.706;23.372;2023-05-25T00:26:07;148120.06;;;16.02;100.00
6938;BME280;40040;42.706;23.372;2023-05-25T00:28:34;148085.38;;;15.88;100.00
6938;BME280;40040;42.706;23.372;2023-05-25T00:31:02;148080.41;;;15.86;100.00
6938;BME280;40040;42.706;23.372;2023-05-25T00:33:29;148070.47;;;15.82;100.00
6938;BME280;40040;42.706;23.372;2023-05-25T00:35:55;148040.75;;;15.69;100.00
6938;BME280;40040;42.706;23.372;2023-05-25T00:38:23;148001.13;;;15.53;100.00
6938;BME280;40040;42.706;23.372;2023-05-25T00:40:53;148032.09;;;15.66;100.00
6938;BME280;40040;42.706;23.372;2023-05-25T00:43:20;148008.56;;;15.56;100.00
6938;BME280;40040;42.706;23.372;2023-05-25T00:45:48;148035.78;;;15.67;100.00
6938;BME280;40040;42.706;23.372;2023-05-25T00:48:17;148020.97;;;15.61;100.00
6938;BME280;40040;42.706;23.372;2023-05-25T00:50:44;147987.53;;;15.48;100.00
6938;BME280;40040;42.706;23.372;2023-05-25T00:53:12;147990.00;;;15.49;100.00
6938;BME280;40040;42.706;23.372;2023-05-25T00:55:43;147994.94;;;15.51;100.00
6938;BME280;40040;42.706;23.372;2023-05-25T00:58:12;147971.41;;;15.41;100.00
6938;BME280;40040;42.706;23.372;2023-05-25T01:00:43;148003.63;;;15.54;100.00
6938;BME280;40040;42.706;23.372;2023-05-25T01:03:13;147971.41;;;15.41;100.00
6938;BME280;40040;42.706;23.372;2023-05-25T01:05:44;147987.53;;;15.48;100.00
6938;BME280;40040;42.706;23.372;2023-05-25T01:08:13;147978.84;;;15.44;100.00
6938;BME280;40040;42.706;23.372;2023-05-25T01:10:44;147952.81;;;15.34;100.00
6938;BME280;40040;42.706;23.372;2023-05-25T01:13:17;147956.50;;;15.35;100.00
6938;BME280;40040;42.706;23.372;2023-05-25T01:15:44;147952.81;;;15.34;100.00
6938;BME280;40040;42.706;23.372;2023-05-25T01:18:13;147945.34;;;15.31;100.00
6938;BME280;40040;42.706;23.372;2023-05-25T01:20:52;147944.13;;;15.30;100.00
6938;BME280;40040;42.706;23.372;2023-05-25T01:23:25;147941.63;;;15.29;100.00
6938;BME280;40040;42.706;23.372;2023-05-25T01:25:59;147941.63;;;15.29;100.00
6938;BME280;40040;42.706;23.372;2023-05-25T01:28:29;147939.19;;;15.28;100.00
6938;BME280;40040;42.706;23.372;2023-05-25T01:31:01;147924.31;;;15.22;100.00
6938;BME280;40040;42.706;23.372;2023-05-25T01:33:29;147892.13;;;15.09;100.00
6938;BME280;40040;42.706;23.372;2023-05-25T01:35:59;147910.66;;;15.17;100.00
6938;BME280;40040;42.706;23.372;2023-05-25T01:38:26;147909.47;;;15.16;100.00
6938;BME280;40040;42.706;23.372;2023-05-25T01:40:53;147893.38;;;15.10;100.00
6938;BME280;40040;42.706;23.372;2023-05-25T01:43:21;147878.50;;;15.04;100.00
6938;BME280;40040;42.706;23.372;2023-05-25T01:45:49;147859.94;;;14.96;100.00
6938;BME280;40040;42.706;23.372;2023-05-25T01:48:24;147836.44;;;14.87;100.00
6938;BME280;40040;42.706;23.372;2023-05-25T01:50:57;147722.53;;;14.40;100.00
6938;BME280;40040;42.706;23.372;2023-05-25T01:53:29;147821.56;;;14.81;100.00
6938;BME280;40040;42.706;23.372;2023-05-25T01:55:58;147827.75;;;14.83;100.00
6938;BME280;40040;42.706;23.372;2023-05-25T01:58:27;147754.75;;;14.53;100.00
6938;BME280;40040;42.706;23.372;2023-05-25T02:00:58;147721.34;;;14.40;100.00
6938;BME280;40040;42.706;23.372;2023-05-25T02:03:26;147781.94;;;14.64;100.00
6938;BME280;40040;42.706;23.372;2023-05-25T02:05:53;147773.28;;;14.61;100.00
6938;BME280;40040;42.706;23.372;2023-05-25T02:08:22;147779.47;;;14.63;100.00
6938;BME280;40040;42.706;23.372;2023-05-25T02:10:50;147798.06;;;14.71;100.00
6938;BME280;40040;42.706;23.372;2023-05-25T02:13:17;147793.09;;;14.69;100.00
6938;BME280;40040;42.706;23.372;2023-05-25T02:15:44;147769.56;;;14.59;100.00
6938;BME280;40040;42.706;23.372;2023-05-25T02:18:10;147760.91;;;14.56;100.00
6938;BME280;40040;42.706;23.372;2023-05-25T02:20:38;147755.94;;;14.54;100.00
6938;BME280;40040;42.706;23.372;2023-05-25T02:23:05;147768.38;;;14.59;100.00
6938;BME280;40040;42.706;23.372;2023-05-25T02:25:31;147743.56;;;14.49;100.00
6938;BME280;40040;42.706;23.372;2023-05-25T02:28:00;147755.94;;;14.54;100.00
6938;BME280;40040;42.706;23.372;2023-05-25T02:30:26;147741.13;;;14.48;100.00
6938;BME280;40040;42.706;23.372;2023-05-25T02:32:53;147733.72;;;14.45;100.00
6938;BME280;40040;42.706;23.372;2023-05-25T02:35:20;147704.03;;;14.33;100.00
6938;BME280;40040;42.706;23.372;2023-05-25T02:37:47;147731.22;;;14.44;100.00
6938;BME280;40040;42.706;23.372;2023-05-25T02:40:16;147715.13;;;14.37;100.00
6938;BME280;40040;42.706;23.372;2023-05-25T02:42:43;147723.78;;;14.41;100.00
6938;BME280;40040;42.706;23.372;2023-05-25T02:45:11;147702.78;;;14.32;100.00
6938;BME280;40040;42.706;23.372;2023-05-25T02:47:38;147679.19;;;14.23;100.00
6938;BME280;40040;42.706;23.372;2023-05-25T02:50:05;147670.53;;;14.19;100.00
6938;BME280;40040;42.706;23.372;2023-05-25T02:52:32;147684.16;;;14.25;100.00
6938;BME280;40040;42.706;23.372;2023-05-25T02:54:59;147661.88;;;14.16;100.00
6938;BME280;40040;42.706;23.372;2023-05-25T02:57:28;147652.00;;;14.12;100.00
6938;BME280;40040;42.706;23.372;2023-05-25T02:59:54;147637.13;;;14.06;100.00
6938;BME280;40040;42.706;23.372;2023-05-25T03:02:23;147611.16;;;13.95;100.00
6938;BME280;40040;42.706;23.372;2023-05-25T03:04:50;147632.19;;;14.04;100.00
6938;BME280;40040;42.706;23.372;2023-05-25T03:07:18;147656.97;;;14.14;100.00
6938;BME280;40040;42.706;23.372;2023-05-25T03:09:45;147670.53;;;14.19;100.00
6938;BME280;40040;42.706;23.372;2023-05-25T03:12:11;147676.72;;;14.22;100.00
6938;BME280;40040;42.706;23.372;2023-05-25T03:14:38;147671.78;;;14.20;100.00
6938;BME280;40040;42.706;23.372;2023-05-25T03:17:05;147642.09;;;14.08;100.00
6938;BME280;40040;42.706;23.372;2023-05-25T03:19:33;147654.47;;;14.13;100.00
6938;BME280;40040;42.706;23.372;2023-05-25T03:22:01;147663.13;;;14.16;100.00
6938;BME280;40040;42.706;23.372;2023-05-25T03:24:28;147664.38;;;14.17;100.00
6938;BME280;40040;42.706;23.372;2023-05-25T03:26:55;147654.47;;;14.13;100.00
6938;BME280;40040;42.706;23.372;2023-05-25T03:29:22;147659.41;;;14.15;100.00
6938;BME280;40040;42.706;23.372;2023-05-25T03:31:48;147644.53;;;14.09;100.00
6938;BME280;40040;42.706;23.372;2023-05-25T03:34:15;147630.97;;;14.03;100.00
6938;BME280;40040;42.706;23.372;2023-05-25T03:36:44;147624.78;;;14.01;100.00
6938;BME280;40040;42.706;23.372;2023-05-25T03:39:12;147618.56;;;13.98;100.00
6938;BME280;40040;42.706;23.372;2023-05-25T03:41:39;147629.72;;;14.03;100.00
6938;BME280;40040;42.706;23.372;2023-05-25T03:44:07;147642.09;;;14.08;100.00
6938;BME280;40040;42.706;23.372;2023-05-25T03:46:35;147644.53;;;14.09;100.00
6938;BME280;40040;42.706;23.372;2023-05-25T03:49:02;147643.34;;;14.08;100.00
6938;BME280;40040;42.706;23.372;2023-05-25T03:51:29;147645.78;;;14.09;100.00
6938;BME280;40040;42.706;23.372;2023-05-25T03:53:57;147661.88;;;14.16;100.00
6938;BME280;40040;42.706;23.372;2023-05-25T03:56:24;147675.47;;;14.21;100.00
6938;BME280;40040;42.706;23.372;2023-05-25T03:58:51;147713.88;;;14.37;100.00
6938;BME280;40040;42.706;23.372;2023-05-25T04:01:18;147732.47;;;14.44;100.00
6938;BME280;40040;42.706;23.372;2023-05-25T04:03:45;147730.00;;;14.43;100.00
6938;BME280;40040;42.706;23.372;2023-05-25T04:06:12;147731.22;;;14.44;100.00
6938;BME280;40040;42.706;23.372;2023-05-25T04:08:43;147746.09;;;14.50;100.00
6938;BME280;40040;42.706;23.372;2023-05-25T04:11:12;147790.59;;;14.68;100.00
6938;BME280;40040;42.706;23.372;2023-05-25T04:13:38;147795.56;;;14.70;100.00
6938;BME280;40040;42.706;23.372;2023-05-25T04:16:06;147827.75;;;14.83;100.00
6938;BME280;40040;42.706;23.372;2023-05-25T04:18:32;147835.19;;;14.86;100.00
6938;BME280;40040;42.706;23.372;2023-05-25T04:20:59;147854.97;;;14.94;100.00
6938;BME280;40040;42.706;23.372;2023-05-25T04:23:26;147864.88;;;14.98;100.00
6938;BME280;40040;42.706;23.372;2023-05-25T04:25:53;147885.91;;;15.07;100.00
6938;BME280;40040;42.706;23.372;2023-05-25T04:28:21;147902.00;;;15.13;100.00
6938;BME280;40040;42.706;23.372;2023-05-25T04:30:48;147858.72;;;14.96;100.00
6938;BME280;40040;42.706;23.372;2023-05-25T04:33:16;147909.47;;;15.16;100.00
6938;BME280;40040;42.706;23.372;2023-05-25T04:35:43;147924.31;;;15.22;100.00
6938;BME280;40040;42.706;23.372;2023-05-25T04:38:11;147931.75;;;15.25;100.00
6938;BME280;40040;42.706;23.372;2023-05-25T04:40:41;147929.25;;;15.24;100.00
6938;BME280;40040;42.706;23.372;2023-05-25T04:43:08;147949.09;;;15.32;100.00
6938;BME280;40040;42.706;23.372;2023-05-25T04:45:38;147958.97;;;15.36;100.00
6938;BME280;40040;42.706;23.372;2023-05-25T04:48:05;148001.13;;;15.53;100.00
6938;BME280;40040;42.706;23.372;2023-05-25T04:50:32;148028.38;;;15.64;100.00
6938;BME280;40040;42.706;23.372;2023-05-25T04:52:58;148060.59;;;15.77;100.00
6938;BME280;40040;42.706;23.372;2023-05-25T04:55:25;148070.47;;;15.82;100.00
6938;BME280;40040;42.706;23.372;2023-05-25T04:57:52;148072.97;;;15.83;100.00
6938;BME280;40040;42.706;23.372;2023-05-25T05:00:19;148070.47;;;15.82;100.00
6938;BME280;40040;42.706;23.372;2023-05-25T05:02:48;148055.63;;;15.75;100.00
6938;BME280;40040;42.706;23.372;2023-05-25T05:05:15;148071.72;;;15.82;100.00
6938;BME280;40040;42.706;23.372;2023-05-25T05:07:42;148060.59;;;15.77;100.00
6938;BME280;40040;42.706;23.372;2023-05-25T05:10:10;148077.94;;;15.85;100.00
6938;BME280;40040;42.706;23.372;2023-05-25T05:12:37;148113.84;;;15.99;100.00
6938;BME280;40040;42.706;23.372;2023-05-25T05:15:05;148112.63;;;15.99;100.00
6938;BME280;40040;42.706;23.372;2023-05-25T05:17:32;148139.84;;;16.10;100.00
6938;BME280;40040;42.706;23.372;2023-05-25T05:20:00;148132.44;;;16.07;100.00
6938;BME280;40040;42.706;23.372;2023-05-25T05:22:29;148120.06;;;16.02;100.00
6938;BME280;40040;42.706;23.372;2023-05-25T05:24:55;148164.63;;;16.20;100.00
6938;BME280;40040;42.706;23.372;2023-05-25T05:27:23;148172.09;;;16.23;100.00
6938;BME280;40040;42.706;23.372;2023-05-25T05:29:50;148189.44;;;16.30;100.00
6938;BME280;40040;42.706;23.372;2023-05-25T05:32:17;148237.78;;;16.49;100.00
6938;BME280;40040;42.706;23.372;2023-05-25T05:34:44;148244.00;;;16.52;100.00
6938;BME280;40040;42.706;23.372;2023-05-25T05:37:12;148276.19;;;16.65;100.00
6938;BME280;40040;42.706;23.372;2023-05-25T05:39:38;148288.63;;;16.70;100.00
6938;BME280;40040;42.706;23.372;2023-05-25T05:42:06;148309.69;;;16.78;100.00
6938;BME280;40040;42.706;23.372;2023-05-25T05:44:34;148346.88;;;16.94;100.00
6938;BME280;40040;42.706;23.372;2023-05-25T05:47:01;148377.88;;;17.06;100.00
6938;BME280;40040;42.706;23.372;2023-05-25T05:49:28;148412.59;;;17.20;100.00
6938;BME280;40040;42.706;23.372;2023-05-25T05:51:55;148479.59;;;17.47;100.00
6938;BME280;40040;42.706;23.372;2023-05-25T05:54:24;148544.06;;;17.73;100.00
6938;BME280;40040;42.706;23.372;2023-05-25T05:56:52;148634.63;;;18.10;100.00
6938;BME280;40040;42.706;23.372;2023-05-25T05:59:20;148710.41;;;18.41;100.00
6938;BME280;40040;42.706;23.372;2023-05-25T06:01:47;148750.09;;;18.57;100.00
6938;BME280;40040;42.706;23.372;2023-05-25T06:04:14;148909.03;;;19.21;100.00
6938;BME280;40040;42.706;23.372;2023-05-25T06:06:41;148953.75;;;19.39;99.68
6938;BME280;40040;42.706;23.372;2023-05-25T06:09:09;148966.16;;;19.44;98.39
6938;BME280;40040;42.706;23.372;2023-05-25T06:11:38;149040.69;;;19.74;96.91
6938;BME280;40040;42.706;23.372;2023-05-25T06:14:05;149064.31;;;19.84;94.18
6938;BME280;40040;42.706;23.372;2023-05-25T06:16:32;149212.19;;;20.44;92.68
6938;BME280;40040;42.706;23.372;2023-05-25T06:18:59;149293.00;;;20.76;88.56
6938;BME280;40040;42.706;23.372;2023-05-25T06:21:26;149366.41;;;21.06;88.35
6938;BME280;40040;42.706;23.372;2023-05-25T06:23:53;149416.13;;;21.26;85.03
6938;BME280;40040;42.706;23.372;2023-05-25T06:26:22;149453.41;;;21.41;83.50
6938;BME280;40040;42.706;23.372;2023-05-25T06:28:50;149480.78;;;21.52;83.38
6938;BME280;40040;42.706;23.372;2023-05-25T06:31:17;149595.28;;;21.98;80.76
6938;BME280;40040;42.706;23.372;2023-05-25T06:33:44;149662.44;;;22.25;79.17
6938;BME280;40040;42.706;23.372;2023-05-25T06:36:11;149701.00;;;22.41;77.85
6938;BME280;40040;42.706;23.372;2023-05-25T06:38:39;149744.63;;;22.59;78.79
6938;BME280;40040;42.706;23.372;2023-05-25T06:41:06;149819.31;;;22.89;77.04
6938;BME280;40040;42.706;23.372;2023-05-25T06:43:34;149834.22;;;22.95;76.53
6938;BME280;40040;42.706;23.372;2023-05-25T06:46:02;149893.97;;;23.19;73.81
6938;BME280;40040;42.706;23.372;2023-05-25T06:48:29;149927.69;;;23.32;75.03
6938;BME280;40040;42.706;23.372;2023-05-25T06:50:55;149988.69;;;23.57;73.98
6938;BME280;40040;42.706;23.372;2023-05-25T06:53:22;150024.78;;;23.72;72.67
6938;BME280;40040;42.706;23.372;2023-05-25T06:55:49;150089.56;;;23.98;72.06
6938;BME280;40040;42.706;23.372;2023-05-25T06:58:16;150140.66;;;24.18;72.74
6938;BME280;40040;42.706;23.372;2023-05-25T07:00:43;150190.53;;;24.38;71.40
6938;BME280;40040;42.706;23.372;2023-05-25T07:03:11;150224.16;;;24.52;69.44
6938;BME280;40040;42.706;23.372;2023-05-25T07:05:38;150220.44;;;24.50;69.71
6938;BME280;40040;42.706;23.372;2023-05-25T07:08:04;150183.06;;;24.35;69.12
6938;BME280;40040;42.706;23.372;2023-05-25T07:10:32;150123.22;;;24.11;70.23
6938;BME280;40040;42.706;23.372;2023-05-25T07:12:59;150180.56;;;24.34;69.12
6938;BME280;40040;42.706;23.372;2023-05-25T07:15:26;150160.63;;;24.26;70.25
6938;BME280;40040;42.706;23.372;2023-05-25T07:17:52;150241.63;;;24.59;69.53
6938;BME280;40040;42.706;23.372;2023-05-25T07:20:22;150305.22;;;24.85;67.79
6938;BME280;40040;42.706;23.372;2023-05-25T07:22:49;150373.75;;;25.12;68.51
6938;BME280;40040;42.706;23.372;2023-05-25T07:25:17;150414.91;;;25.29;67.78
6938;BME280;40040;42.706;23.372;2023-05-25T07:27:47;150497.25;;;25.62;67.43
6938;BME280;40040;42.706;23.372;2023-05-25T07:30:14;150419.91;;;25.31;67.18
6938;BME280;40040;42.706;23.372;2023-05-25T07:32:41;150387.47;;;25.18;68.64
6938;BME280;40040;42.706;23.372;2023-05-25T07:35:08;150409.94;;;25.27;67.31
6938;BME280;40040;42.706;23.372;2023-05-25T07:37:36;150370.03;;;25.11;67.55
6938;BME280;40040;42.706;23.372;2023-05-25T07:40:04;150417.38;;;25.30;67.43
6938;BME280;40040;42.706;23.372;2023-05-25T07:42:31;150345.09;;;25.01;69.13
6938;BME280;40040;42.706;23.372;2023-05-25T07:44:59;150341.38;;;24.99;71.11
6938;BME280;40040;42.706;23.372;2023-05-25T07:47:26;150226.63;;;24.53;72.59
6938;BME280;40040;42.706;23.372;2023-05-25T07:49:53;150115.75;;;24.08;75.02
6938;BME280;40040;42.706;23.372;2023-05-25T07:52:20;150060.91;;;23.86;76.15
6938;BME280;40040;42.706;23.372;2023-05-25T07:54:48;150003.63;;;23.63;77.22
6938;BME280;40040;42.706;23.372;2023-05-25T07:57:15;149963.75;;;23.47;77.72
6938;BME280;40040;42.706;23.372;2023-05-25T07:59:42;149886.50;;;23.16;78.07
6938;BME280;40040;42.706;23.372;2023-05-25T08:02:09;149800.63;;;22.81;78.39
6938;BME280;40040;42.706;23.372;2023-05-25T08:04:36;149688.56;;;22.36;81.18
6938;BME280;40040;42.706;23.372;2023-05-25T08:07:03;149596.50;;;21.99;81.48
6938;BME280;40040;42.706;23.372;2023-05-25T08:09:30;149523.06;;;21.69;84.12
6938;BME280;40040;42.706;23.372;2023-05-25T08:11:58;149445.94;;;21.38;86.20
6938;BME280;40040;42.706;23.372;2023-05-25T08:14:26;149404.94;;;21.21;87.94
6938;BME280;40040;42.706;23.372;2023-05-25T08:16:52;149372.59;;;21.08;88.98
6938;BME280;40040;42.706;23.372;2023-05-25T08:19:19;149321.56;;;20.88;89.79
6938;BME280;40040;42.706;23.372;2023-05-25T08:21:46;149259.41;;;20.63;93.44
6938;BME280;40040;42.706;23.372;2023-05-25T08:24:13;149192.31;;;20.36;94.95
6938;BME280;40040;42.706;23.372;2023-05-25T08:26:40;149096.59;;;19.97;100.00
6938;BME280;40040;42.706;23.372;2023-05-25T08:29:09;148983.53;;;19.51;100.00
6938;BME280;40040;42.706;23.372;2023-05-25T08:31:35;148909.03;;;19.21;100.00
6938;BME280;40040;42.706;23.372;2023-05-25T08:34:02;148796.03;;;18.75;100.00
6938;BME280;40040;42.706;23.372;2023-05-25T08:36:29;148731.50;;;18.49;100.00
6938;BME280;40040;42.706;23.372;2023-05-25T08:38:58;148700.41;;;18.37;100.00
6938;BME280;40040;42.706;23.372;2023-05-25T08:41:25;148649.53;;;18.16;100.00
6938;BME280;40040;42.706;23.372;2023-05-25T08:43:51;148582.53;;;17.89;100.00
6938;BME280;40040;42.706;23.372;2023-05-25T08:46:27;148510.59;;;17.60;100.00
6938;BME280;40040;42.706;23.372;2023-05-25T08:48:59;148452.28;;;17.36;100.00
6938;BME280;40040;42.706;23.372;2023-05-25T08:51:34;148447.31;;;17.34;100.00
6938;BME280;40040;42.706;23.372;2023-05-25T08:54:06;148386.56;;;17.10;100.00
6938;BME280;40040;42.706;23.372;2023-05-25T08:56:38;148333.22;;;16.88;100.00
6938;BME280;40040;42.706;23.372;2023-05-25T08:59:13;148298.50;;;16.74;100.00
6938;BME280;40040;42.706;23.372;2023-05-25T09:01:46;148289.84;;;16.70;100.00
6938;BME280;40040;42.706;23.372;2023-05-25T09:04:15;148301.03;;;16.75;100.00
6938;BME280;40040;42.706;23.372;2023-05-25T09:06:43;148333.22;;;16.88;100.00
6938;BME280;40040;42.706;23.372;2023-05-25T09:09:12;148360.53;;;16.99;100.00
6938;BME280;40040;42.706;23.372;2023-05-25T09:11:40;148365.47;;;17.01;100.00
6938;BME280;40040;42.706;23.372;2023-05-25T09:14:07;148348.13;;;16.94;100.00
6938;BME280;40040;42.706;23.372;2023-05-25T09:16:34;148381.59;;;17.08;100.00
6938;BME280;40040;42.706;23.372;2023-05-25T09:19:03;148397.69;;;17.14;100.00
6938;BME280;40040;42.706;23.372;2023-05-25T09:21:31;148392.72;;;17.12;100.00
6938;BME280;40040;42.706;23.372;2023-05-25T09:23:59;148412.59;;;17.20;100.00
6938;BME280;40040;42.706;23.372;2023-05-25T09:26:26;148415.06;;;17.21;100.00
6938;BME280;40040;42.706;23.372;2023-05-25T09:28:52;148415.06;;;17.21;100.00
6938;BME280;40040;42.706;23.372;2023-05-25T09:31:22;148431.16;;;17.28;100.00
6938;BME280;40040;42.706;23.372;2023-05-25T09:33:50;148422.53;;;17.24;100.00
6938;BME280;40040;42.706;23.372;2023-05-25T09:36:21;148447.31;;;17.34;100.00
6938;BME280;40040;42.706;23.372;2023-05-25T09:38:48;148454.75;;;17.37;100.00
6938;BME280;40040;42.706;23.372;2023-05-25T09:41:15;148503.16;;;17.57;100.00
6938;BME280;40040;42.706;23.372;2023-05-25T09:43:43;148499.44;;;17.55;100.00
6938;BME280;40040;42.706;23.372;2023-05-25T09:46:10;148532.94;;;17.69;100.00
6938;BME280;40040;42.706;23.372;2023-05-25T09:48:37;148546.59;;;17.74;100.00
6938;BME280;40040;42.706;23.372;2023-05-25T09:51:06;148568.91;;;17.83;100.00
6938;BME280;40040;42.706;23.372;2023-05-25T09:53:34;148599.91;;;17.96;100.00
6938;BME280;40040;42.706;23.372;2023-05-25T09:56:02;148639.59;;;18.12;100.00
6938;BME280;40040;42.706;23.372;2023-05-25T09:58:29;148613.56;;;18.02;100.00
6938;BME280;40040;42.706;23.372;2023-05-25T10:00:56;148642.13;;;18.13;100.00
6938;BME280;40040;42.706;23.372;2023-05-25T10:03:23;148701.66;;;18.37;100.00
6938;BME280;40040;42.706;23.372;2023-05-25T10:05:50;148727.78;;;18.48;100.00
6938;BME280;40040;42.706;23.372;2023-05-25T10:08:19;148725.28;;;18.47;100.00
6938;BME280;40040;42.706;23.372;2023-05-25T10:10:49;148788.59;;;18.72;100.00
6938;BME280;40040;42.706;23.372;2023-05-25T10:13:19;148819.59;;;18.85;100.00
6938;BME280;40040;42.706;23.372;2023-05-25T10:15:47;148844.47;;;18.95;100.00
6938;BME280;40040;42.706;23.372;2023-05-25T10:18:20;148854.34;;;18.99;100.00
6938;BME280;40040;42.706;23.372;2023-05-25T10:20:53;148880.44;;;19.09;100.00
6938;BME280;40040;42.706;23.372;2023-05-25T10:23:23;148879.19;;;19.09;100.00
6938;BME280;40040;42.706;23.372;2023-05-25T10:25:56;148895.34;;;19.16;100.00
6938;BME280;40040;42.706;23.372;2023-05-25T10:28:27;148882.94;;;19.11;100.00
6938;BME280;40040;42.706;23.372;2023-05-25T10:30:56;148895.34;;;19.16;100.00
6938;BME280;40040;42.706;23.372;2023-05-25T10:33:23;148839.50;;;18.93;100.00
6938;BME280;40040;42.706;23.372;2023-05-25T10:35:50;148814.63;;;18.83;100.00
6938;BME280;40040;42.706;23.372;2023-05-25T10:38:17;148794.78;;;18.75;100.00
6938;BME280;40040;42.706;23.372;2023-05-25T10:40:46;148854.34;;;18.99;100.00
6938;BME280;40040;42.706;23.372;2023-05-25T10:43:16;148906.50;;;19.20;100.00
6938;BME280;40040;42.706;23.372;2023-05-25T10:45:44;148909.03;;;19.21;100.00
6938;BME280;40040;42.706;23.372;2023-05-25T10:48:10;148896.56;;;19.16;100.00
6938;BME280;40040;42.706;23.372;2023-05-25T10:50:37;148886.66;;;19.12;100.00
6938;BME280;40040;42.706;23.372;2023-05-25T10:53:05;148874.25;;;19.07;100.00
6938;BME280;40040;42.706;23.372;2023-05-25T10:55:42;148894.09;;;19.15;100.00
6938;BME280;40040;42.706;23.372;2023-05-25T10:58:10;148958.72;;;19.41;100.00
6938;BME280;40040;42.706;23.372;2023-05-25T11:00:39;149003.44;;;19.59;100.00
6938;BME280;40040;42.706;23.372;2023-05-25T11:03:06;148972.38;;;19.47;100.00
6938;BME280;40040;42.706;23.372;2023-05-25T11:05:35;149008.41;;;19.61;100.00
6938;BME280;40040;42.706;23.372;2023-05-25T11:08:04;149048.13;;;19.77;100.00
6938;BME280;40040;42.706;23.372;2023-05-25T11:10:50;149035.72;;;19.72;100.00
6938;BME280;40040;42.706;23.372;2023-05-25T11:13:37;149038.22;;;19.73;100.00
6938;BME280;40040;42.706;23.372;2023-05-25T11:16:22;149033.25;;;19.71;100.00
6938;BME280;40040;42.706;23.372;2023-05-25T11:19:01;148995.97;;;19.56;100.00
6938;BME280;40040;42.706;23.372;2023-05-25T11:21:41;149056.81;;;19.81;100.00
6938;BME280;40040;42.706;23.372;2023-05-25T11:24:15;149059.34;;;19.82;100.00
6938;BME280;40040;42.706;23.372;2023-05-25T11:26:53;149080.44;;;19.90;100.00
6938;BME280;40040;42.706;23.372;2023-05-25T11:29:21;149053.09;;;19.79;100.00
6938;BME280;40040;42.706;23.372;2023-05-25T11:31:52;149023.31;;;19.67;100.00
6938;BME280;40040;42.706;23.372;2023-05-25T11:34:20;149019.59;;;19.66;100.00
6938;BME280;40040;42.706;23.372;2023-05-25T11:36:52;149013.34;;;19.63;100.00
6938;BME280;40040;42.706;23.372;2023-05-25T11:39:19;149024.56;;;19.68;100.00
6938;BME280;40040;42.706;23.372;2023-05-25T11:41:47;149015.88;;;19.64;100.00
6938;BME280;40040;42.706;23.372;2023-05-25T11:44:24;149015.88;;;19.64;100.00
6938;BME280;40040;42.706;23.372;2023-05-25T11:46:54;149043.16;;;19.75;100.00
6938;BME280;40040;42.706;23.372;2023-05-25T11:49:23;149051.84;;;19.79;100.00
6938;BME280;40040;42.706;23.372;2023-05-25T11:51:50;149118.97;;;20.06;100.00
6938;BME280;40040;42.706;23.372;2023-05-25T11:54:21;149166.22;;;20.25;100.00
6938;BME280;40040;42.706;23.372;2023-05-25T11:56:48;149208.47;;;20.42;100.00
6938;BME280;40040;42.706;23.372;2023-05-25T11:59:15;149248.25;;;20.58;100.00
6938;BME280;40040;42.706;23.372;2023-05-25T12:01:42;149300.44;;;20.79;100.00
6938;BME280;40040;42.706;23.372;2023-05-25T12:04:10;149320.31;;;20.87;100.00
6938;BME280;40040;42.706;23.372;2023-05-25T12:06:37;149376.31;;;21.10;100.00
6938;BME280;40040;42.706;23.372;2023-05-25T12:09:09;149406.16;;;21.22;100.00
6938;BME280;40040;42.706;23.372;2023-05-25T12:11:37;149445.94;;;21.38;100.00
6938;BME280;40040;42.706;23.372;2023-05-25T12:14:05;149488.22;;;21.55;100.00
6938;BME280;40040;42.706;23.372;2023-05-25T12:16:33;149513.13;;;21.65;100.00
6938;BME280;40040;42.706;23.372;2023-05-25T12:19:01;149499.44;;;21.60;100.00
6938;BME280;40040;42.706;23.372;2023-05-25T12:21:30;149479.50;;;21.52;100.00
6938;BME280;40040;42.706;23.372;2023-05-25T12:23:57;149514.34;;;21.66;100.00
6938;BME280;40040;42.706;23.372;2023-05-25T12:26:24;149575.34;;;21.90;100.00
6938;BME280;40040;42.706;23.372;2023-05-25T12:28:58;149580.31;;;21.92;100.00
6938;BME280;40040;42.706;23.372;2023-05-25T12:31:26;149622.63;;;22.09;100.00
6938;BME280;40040;42.706;23.372;2023-05-25T12:34:07;149616.44;;;22.07;98.41
6938;BME280;40040;42.706;23.372;2023-05-25T12:36:43;149616.44;;;22.07;100.00
6938;BME280;40040;42.706;23.372;2023-05-25T12:39:10;149663.69;;;22.26;99.02
6938;BME280;40040;42.706;23.372;2023-05-25T12:41:44;149709.72;;;22.45;93.27
6938;BME280;40040;42.706;23.372;2023-05-25T12:44:20;149739.63;;;22.57;97.58
6938;BME280;40040;42.706;23.372;2023-05-25T12:46:48;149755.81;;;22.63;94.87
6938;BME280;40040;42.706;23.372;2023-05-25T12:49:29;149801.88;;;22.82;95.91